Time;durP1;ratioP1;P1;durP2;ratioP2;P2;SDS_P1;SDS_P2;PMS_P1;PMS_P2;Temp;Humidity;BMP_temperature;BMP_pressure;BME280_temperature;BME280_humidity;BME280_pressure;Samples;Min_cycle;Max_cycle;Signal;HPM_P1;HPM_P2
2023/10/20 00:02:12;;;;;;;77.53;32.55;;;;;;;;;;5046044;28;20190;-73
2023/10/20 00:04:38;;;;;;;72.15;31.55;;;;;;;;;;5034550;28;20384;-73
2023/10/20 00:07:03;;;;;;;77.15;33.72;;;;;;;;;;5038297;28;21807;-73
2023/10/20 00:09:29;;;;;;;70.75;32.40;;;;;;;;;;5030618;28;20194;-74
2023/10/20 00:11:54;;;;;;;66.68;31.23;;;;;;;;;;5029379;28;20270;-72
2023/10/20 00:14:20;;;;;;;72.13;32.17;;;;;;;;;;5019802;28;20235;-72
2023/10/20 00:16:45;;;;;;;61.00;31.45;;;;;;;;;;5018501;28;20684;-72
2023/10/20 00:19:11;;;;;;;68.25;31.33;;;;;;;;;;5029316;28;20629;-72
2023/10/20 00:21:39;;;;;;;75.93;31.52;;;;;;;;;;5022466;28;20206;-72
2023/10/20 00:24:05;;;;;;;79.70;33.30;;;;;;;;;;5032844;28;20316;-72
2023/10/20 00:26:30;;;;;;;67.90;31.40;;;;;;;;;;5035869;28;20218;-72
2023/10/20 00:28:56;;;;;;;79.80;32.30;;;;;;;;;;5035417;28;20401;-72
2023/10/20 00:31:21;;;;;;;67.00;30.95;;;;;;;;;;5032575;28;20238;-70
2023/10/20 00:33:50;;;;;;;70.97;31.33;;;;;;;;;;5028668;28;20228;-72
2023/10/20 00:36:17;;;;;;;73.22;31.75;;;;;;;;;;5027423;28;20221;-71
2023/10/20 00:38:42;;;;;;;77.72;32.60;;;;;;;;;;5041824;28;20191;-72
2023/10/20 00:41:08;;;;;;;74.13;32.35;;;;;;;;;;5023058;28;20944;-74
2023/10/20 00:43:37;;;;;;;80.85;32.40;;;;;;;;;;5027426;28;20269;-73
2023/10/20 00:46:07;;;;;;;77.68;33.47;;;;;;;;;;5029476;28;20657;-72
2023/10/20 00:48:37;;;;;;;87.40;33.03;;;;;;;;;;5025180;28;20199;-72
2023/10/20 00:51:05;;;;;;;78.30;32.95;;;;;;;;;;5030648;28;20221;-72
2023/10/20 00:53:33;;;;;;;75.63;33.92;;;;;;;;;;5021073;28;20194;-72
2023/10/20 00:56:00;;;;;;;74.53;32.15;;;;;;;;;;5027975;28;20273;-71
2023/10/20 00:58:27;;;;;;;78.43;32.92;;;;;;;;;;5022140;28;20237;-72
2023/10/20 01:00:52;;;;;;;77.38;32.67;;;;;;;;;;5030902;28;20336;-72
2023/10/20 01:03:19;;;;;;;73.57;32.78;;;;;;;;;;5011787;28;20313;-72
2023/10/20 01:05:44;;;;;;;76.20;31.63;;;;;;;;;;5028257;28;20197;-72
2023/10/20 01:08:09;;;;;;;69.60;31.02;;;;;;;;;;5030636;28;20187;-73
2023/10/20 01:10:35;;;;;;;68.32;31.73;;;;;;;;;;5032947;28;20197;-73
2023/10/20 01:13:00;;;;;;;72.40;32.05;;;;;;;;;;5030578;28;20243;-73
2023/10/20 01:15:27;;;;;;;70.88;31.75;;;;;;;;;;5025236;28;20598;-73
2023/10/20 01:17:52;;;;;;;74.40;31.25;;;;;;;;;;5024461;28;20200;-72
2023/10/20 01:20:18;;;;;;;69.40;32.58;;;;;;;;;;5031221;28;20186;-72
2023/10/20 01:22:44;;;;;;;65.55;31.05;;;;;;;;;;5045169;28;20193;-73
2023/10/20 01:25:11;;;;;;;74.47;32.53;;;;;;;;;;5038288;28;20190;-73
2023/10/20 01:27:36;;;;;;;77.22;33.33;;;;;;;;;;5022924;28;20569;-73
2023/10/20 01:30:03;;;;;;;67.15;30.48;;;;;;;;;;5029512;28;20190;-72
2023/10/20 01:32:28;;;;;;;76.03;31.50;;;;;;;;;;5027643;28;20198;-72
2023/10/20 01:34:54;;;;;;;69.95;30.65;;;;;;;;;;5027733;28;20199;-73
2023/10/20 01:37:19;;;;;;;70.40;30.90;;;;;;;;;;5037942;28;20206;-72
2023/10/20 01:39:45;;;;;;;72.18;31.75;;;;;;;;;;5050914;28;20198;-72
2023/10/20 01:42:10;;;;;;;69.70;32.17;;;;;;;;;;5030172;28;20191;-72
2023/10/20 01:44:36;;;;;;;67.80;31.60;;;;;;;;;;5030917;28;20328;-72
2023/10/20 01:47:02;;;;;;;80.22;32.60;;;;;;;;;;5017333;28;20351;-72
2023/10/20 01:49:27;;;;;;;77.43;31.70;;;;;;;;;;5031366;28;20190;-72
2023/10/20 01:51:53;;;;;;;80.80;32.22;;;;;;;;;;5028202;28;20194;-73
2023/10/20 01:54:18;;;;;;;73.38;32.13;;;;;;;;;;5029432;28;20238;-72
2023/10/20 01:56:43;;;;;;;77.07;31.83;;;;;;;;;;5025393;28;20263;-72
2023/10/20 01:59:09;;;;;;;69.82;31.60;;;;;;;;;;5025470;28;20174;-72
2023/10/20 02:01:35;;;;;;;75.55;32.45;;;;;;;;;;5046256;28;20320;-73
2023/10/20 02:04:00;;;;;;;73.47;31.48;;;;;;;;;;5024729;28;20658;-72
2023/10/20 02:06:26;;;;;;;74.57;31.23;;;;;;;;;;5026577;28;20336;-72
2023/10/20 02:08:51;;;;;;;73.15;31.23;;;;;;;;;;5035520;28;20198;-72
2023/10/20 02:11:17;;;;;;;84.22;32.30;;;;;;;;;;5027778;28;20260;-73
2023/10/20 02:13:42;;;;;;;74.53;31.20;;;;;;;;;;5028799;28;20182;-72
2023/10/20 02:16:09;;;;;;;82.82;32.20;;;;;;;;;;5026992;28;20601;-73
2023/10/20 02:18:34;;;;;;;76.00;31.30;;;;;;;;;;5023800;28;20194;-72
2023/10/20 02:21:03;;;;;;;74.30;32.00;;;;;;;;;;5016989;28;20669;-73
2023/10/20 02:23:34;;;;;;;72.78;32.17;;;;;;;;;;5029868;28;20269;-72
2023/10/20 02:26:01;;;;;;;73.20;30.92;;;;;;;;;;5025986;28;20209;-72
2023/10/20 02:28:27;;;;;;;76.85;31.60;;;;;;;;;;5026540;28;20214;-72
2023/10/20 02:30:58;;;;;;;76.72;32.15;;;;;;;;;;5023623;28;20183;-72
2023/10/20 02:33:25;;;;;;;72.18;31.42;;;;;;;;;;5019712;28;20285;-72
2023/10/20 02:35:50;;;;;;;84.82;31.77;;;;;;;;;;5018798;28;20207;-72
2023/10/20 02:38:16;;;;;;;83.93;30.67;;;;;;;;;;5023353;28;20181;-72
2023/10/20 02:40:51;;;;;;;76.50;30.70;;;;;;;;;;5029469;28;20255;-72
2023/10/20 02:43:17;;;;;;;66.00;30.02;;;;;;;;;;5030407;28;20201;-71
2023/10/20 02:45:51;;;;;;;78.82;31.20;;;;;;;;;;5023017;28;20894;-72
2023/10/20 02:48:16;;;;;;;75.53;31.17;;;;;;;;;;5025583;28;20271;-72
2023/10/20 02:50:42;;;;;;;83.18;31.40;;;;;;;;;;5027340;28;20274;-73
2023/10/20 02:53:08;;;;;;;63.35;29.52;;;;;;;;;;5028704;28;20498;-73
2023/10/20 02:55:33;;;;;;;73.35;29.48;;;;;;;;;;5039776;28;20213;-73
2023/10/20 02:58:02;;;;;;;76.05;29.73;;;;;;;;;;5030531;28;20618;-73
2023/10/20 03:00:27;;;;;;;71.82;30.60;;;;;;;;;;5017345;28;20229;-72
2023/10/20 03:02:53;;;;;;;77.15;31.45;;;;;;;;;;5024183;28;20229;-72
2023/10/20 03:05:22;;;;;;;75.57;30.52;;;;;;;;;;5023157;28;20194;-72
2023/10/20 03:07:48;;;;;;;84.93;31.38;;;;;;;;;;5026491;28;20190;-70
2023/10/20 03:10:15;;;;;;;71.80;29.58;;;;;;;;;;5023029;28;20207;-72
2023/10/20 03:12:40;;;;;;;74.03;30.95;;;;;;;;;;5027843;28;20189;-72
2023/10/20 03:15:07;;;;;;;71.07;30.08;;;;;;;;;;5026025;28;20234;-73
2023/10/20 03:17:33;;;;;;;74.88;30.05;;;;;;;;;;5026839;28;20214;-73
2023/10/20 03:19:58;;;;;;;73.85;30.45;;;;;;;;;;5027524;28;20268;-71
2023/10/20 03:22:24;;;;;;;72.03;31.42;;;;;;;;;;5024907;28;20304;-73
2023/10/20 03:24:49;;;;;;;70.88;28.55;;;;;;;;;;5018911;28;20181;-73
2023/10/20 03:27:15;;;;;;;84.60;31.75;;;;;;;;;;5030744;28;20182;-73
2023/10/20 03:29:40;;;;;;;79.53;30.45;;;;;;;;;;5029757;28;20281;-73
2023/10/20 03:32:05;;;;;;;78.13;31.85;;;;;;;;;;5027646;28;20733;-73
2023/10/20 03:34:32;;;;;;;71.40;29.40;;;;;;;;;;5034266;28;20230;-73
2023/10/20 03:36:57;;;;;;;70.05;29.60;;;;;;;;;;5036267;28;20212;-71
2023/10/20 03:39:23;;;;;;;72.43;29.98;;;;;;;;;;5014966;28;20881;-73
2023/10/20 03:41:49;;;;;;;91.18;31.50;;;;;;;;;;5034700;28;20186;-73
2023/10/20 03:44:15;;;;;;;77.68;31.60;;;;;;;;;;5024577;28;20248;-71
2023/10/20 03:46:48;;;;;;;75.75;30.92;;;;;;;;;;5057377;28;20186;-73
2023/10/20 03:49:15;;;;;;;78.03;29.58;;;;;;;;;;5040789;28;20194;-71
2023/10/20 03:51:48;;;;;;;82.28;29.65;;;;;;;;;;5025304;28;20201;-70
2023/10/20 03:54:15;;;;;;;75.20;30.48;;;;;;;;;;5025735;28;20186;-71
2023/10/20 03:56:41;;;;;;;77.88;28.85;;;;;;;;;;5021228;28;20638;-73
2023/10/20 03:59:07;;;;;;;74.32;29.17;;;;;;;;;;5032463;28;20242;-71
2023/10/20 04:01:33;;;;;;;75.20;29.60;;;;;;;;;;5029812;28;20190;-71
2023/10/20 04:03:59;;;;;;;81.22;31.13;;;;;;;;;;5018961;28;20183;-71
2023/10/20 04:06:24;;;;;;;80.40;29.98;;;;;;;;;;5019482;28;20184;-71
2023/10/20 04:08:49;;;;;;;74.65;28.90;;;;;;;;;;5027315;28;20190;-71
2023/10/20 04:11:15;;;;;;;75.43;29.90;;;;;;;;;;5027422;28;20638;-71
2023/10/20 04:13:40;;;;;;;67.65;28.88;;;;;;;;;;5028665;28;20289;-71
2023/10/20 04:16:13;;;;;;;76.47;28.92;;;;;;;;;;5021990;28;20223;-71
2023/10/20 04:18:42;;;;;;;80.05;28.98;;;;;;;;;;5016732;28;20685;-70
2023/10/20 04:21:08;;;;;;;77.13;28.08;;;;;;;;;;5019082;28;20206;-71
2023/10/20 04:23:34;;;;;;;73.15;28.42;;;;;;;;;;5028399;28;20198;-71
2023/10/20 04:26:00;;;;;;;79.53;29.40;;;;;;;;;;5045626;28;20201;-71
2023/10/20 04:28:33;;;;;;;72.57;29.23;;;;;;;;;;5021928;28;20313;-71
2023/10/20 04:55:26;;;;;;;74.45;27.13;;;;;;;;;;5026035;28;20614;-72
2023/10/20 05:08:17;;;;;;;72.38;28.05;;;;;;;;;;5031565;28;20186;-71
2023/10/20 05:10:43;;;;;;;80.80;29.10;;;;;;;;;;5049671;28;20177;-72
2023/10/20 05:13:12;;;;;;;71.28;29.98;;;;;;;;;;5038052;28;20541;-73
2023/10/20 05:15:41;;;;;;;69.07;27.77;;;;;;;;;;5043791;28;20590;-73
2023/10/20 05:18:11;;;;;;;80.55;29.20;;;;;;;;;;5014903;28;20186;-72
2023/10/20 05:20:37;;;;;;;70.28;28.35;;;;;;;;;;5016073;28;20194;-72
2023/10/20 05:23:02;;;;;;;70.50;27.77;;;;;;;;;;5026915;28;20183;-72
2023/10/20 05:25:28;;;;;;;68.05;27.25;;;;;;;;;;5036358;28;20317;-72
2023/10/20 05:27:54;;;;;;;65.53;28.30;;;;;;;;;;5030790;28;20190;-73
2023/10/20 05:30:19;;;;;;;69.25;27.70;;;;;;;;;;5027421;28;20528;-70
2023/10/20 05:32:46;;;;;;;70.28;27.00;;;;;;;;;;5020600;28;20189;-72
2023/10/20 05:35:12;;;;;;;68.40;25.83;;;;;;;;;;5026293;28;20610;-71
2023/10/20 05:37:37;;;;;;;67.85;27.42;;;;;;;;;;5012878;28;20241;-72
2023/10/20 05:40:04;;;;;;;61.95;26.05;;;;;;;;;;5033492;28;20186;-71
2023/10/20 05:42:31;;;;;;;63.92;26.52;;;;;;;;;;5016221;28;20229;-70
2023/10/20 05:45:09;;;;;;;69.30;27.00;;;;;;;;;;5025068;28;20208;-71
2023/10/20 05:47:35;;;;;;;70.30;25.60;;;;;;;;;;5028775;28;20248;-71
2023/10/20 05:50:02;;;;;;;63.33;27.45;;;;;;;;;;5026558;28;20684;-71
2023/10/20 05:52:28;;;;;;;66.13;25.35;;;;;;;;;;5028131;28;20741;-71
2023/10/20 05:54:54;;;;;;;69.82;26.40;;;;;;;;;;5032145;28;20291;-71
2023/10/20 05:57:20;;;;;;;62.17;25.02;;;;;;;;;;5026801;28;20292;-72
2023/10/20 05:59:46;;;;;;;60.17;25.42;;;;;;;;;;5028258;28;20257;-72
2023/10/20 06:02:11;;;;;;;61.92;24.48;;;;;;;;;;5027267;28;20563;-72
2023/10/20 06:04:37;;;;;;;62.33;24.60;;;;;;;;;;5028639;28;20194;-72
2023/10/20 06:07:04;;;;;;;58.83;22.45;;;;;;;;;;5028925;28;20190;-73
2023/10/20 06:09:29;;;;;;;61.70;23.67;;;;;;;;;;5031053;28;20186;-72
2023/10/20 06:11:54;;;;;;;56.25;22.70;;;;;;;;;;5025943;28;20678;-74
2023/10/20 06:14:26;;;;;;;57.60;22.95;;;;;;;;;;5021055;28;20207;-73
2023/10/20 06:16:52;;;;;;;58.88;23.98;;;;;;;;;;5017709;28;20240;-71
2023/10/20 06:19:18;;;;;;;53.70;22.52;;;;;;;;;;5025509;28;20187;-73
2023/10/20 06:21:44;;;;;;;57.30;22.27;;;;;;;;;;5028181;28;20284;-73
2023/10/20 06:24:10;;;;;;;50.03;21.23;;;;;;;;;;5026421;28;20193;-74
2023/10/20 06:26:36;;;;;;;48.28;20.90;;;;;;;;;;5030926;28;20676;-73
2023/10/20 06:29:02;;;;;;;49.65;21.80;;;;;;;;;;5027810;28;20187;-73
2023/10/20 06:31:29;;;;;;;45.08;20.08;;;;;;;;;;5023493;28;20280;-72
2023/10/20 06:34:00;;;;;;;42.60;19.38;;;;;;;;;;5020985;28;20272;-72
2023/10/20 06:36:27;;;;;;;41.83;19.92;;;;;;;;;;5016796;28;20343;-72
2023/10/20 06:38:52;;;;;;;43.17;19.58;;;;;;;;;;5021240;28;20185;-72
2023/10/20 06:41:18;;;;;;;40.25;19.23;;;;;;;;;;5030440;28;20268;-71
2023/10/20 06:43:44;;;;;;;41.58;18.85;;;;;;;;;;5019433;28;20559;-71
2023/10/20 06:46:10;;;;;;;40.90;18.08;;;;;;;;;;5031141;28;20529;-70
2023/10/20 06:48:35;;;;;;;37.92;17.33;;;;;;;;;;5027332;28;20196;-73
2023/10/20 06:51:01;;;;;;;38.55;18.33;;;;;;;;;;5029538;28;20197;-75
2023/10/20 06:53:28;;;;;;;40.90;19.20;;;;;;;;;;5025325;28;20250;-74
2023/10/20 06:55:53;;;;;;;37.10;18.38;;;;;;;;;;5036927;28;20221;-74
2023/10/20 06:58:19;;;;;;;38.47;19.25;;;;;;;;;;5027516;28;20182;-75
2023/10/20 07:00:45;;;;;;;35.75;17.60;;;;;;;;;;5022361;28;20190;-73
2023/10/20 07:03:11;;;;;;;32.42;17.33;;;;;;;;;;5024798;28;20316;-73
2023/10/20 07:05:37;;;;;;;38.92;17.70;;;;;;;;;;5017431;28;20679;-74
2023/10/20 07:08:04;;;;;;;31.83;16.00;;;;;;;;;;5025708;28;20198;-74
2023/10/20 07:10:38;;;;;;;31.80;15.38;;;;;;;;;;5028941;28;20598;-75
2023/10/20 07:13:08;;;;;;;26.02;14.52;;;;;;;;;;5029659;28;20641;-75
2023/10/20 07:15:35;;;;;;;23.77;12.32;;;;;;;;;;5027155;28;20234;-72
2023/10/20 07:18:05;;;;;;;27.67;14.68;;;;;;;;;;5031226;28;20182;-72
2023/10/20 07:20:32;;;;;;;21.15;12.23;;;;;;;;;;5042148;28;20690;-74
2023/10/20 07:22:57;;;;;;;20.17;10.55;;;;;;;;;;5014368;28;20185;-74
2023/10/20 07:25:23;;;;;;;17.58;10.07;;;;;;;;;;5015876;28;20182;-73
2023/10/20 07:27:48;;;;;;;18.58;10.32;;;;;;;;;;5024738;28;20785;-75
2023/10/20 07:30:16;;;;;;;15.90;9.65;;;;;;;;;;5023920;28;20201;-76
2023/10/20 07:32:42;;;;;;;16.38;9.05;;;;;;;;;;5010694;28;20688;-75
2023/10/20 07:35:08;;;;;;;18.83;9.73;;;;;;;;;;5021705;28;20237;-75
2023/10/20 07:37:34;;;;;;;14.35;8.73;;;;;;;;;;5036712;28;20670;-75
2023/10/20 07:39:59;;;;;;;15.88;7.55;;;;;;;;;;5017271;28;20186;-77
2023/10/20 07:42:24;;;;;;;12.85;7.68;;;;;;;;;;5043151;28;20528;-74
2023/10/20 07:44:50;;;;;;;13.95;7.90;;;;;;;;;;5028476;28;20190;-76
2023/10/20 07:47:15;;;;;;;10.32;6.85;;;;;;;;;;5025829;28;20186;-76
2023/10/20 07:49:41;;;;;;;10.50;7.25;;;;;;;;;;5035633;28;20187;-77
2023/10/20 07:52:08;;;;;;;10.77;6.60;;;;;;;;;;5044571;28;20195;-78
2023/10/20 07:54:33;;;;;;;9.57;6.45;;;;;;;;;;5038666;28;20185;-77
2023/10/20 07:57:00;;;;;;;8.40;5.65;;;;;;;;;;5031573;28;20974;-76
2023/10/20 07:59:25;;;;;;;8.90;5.63;;;;;;;;;;5031337;28;20213;-74
2023/10/20 08:01:51;;;;;;;8.75;5.25;;;;;;;;;;5049997;28;20190;-75
2023/10/20 08:04:16;;;;;;;8.07;4.57;;;;;;;;;;5047485;28;20264;-73
2023/10/20 08:06:42;;;;;;;9.10;5.20;;;;;;;;;;5028904;28;20198;-78
2023/10/20 08:09:12;;;;;;;8.18;4.97;;;;;;;;;;5024711;28;20190;-77
2023/10/20 08:11:39;;;;;;;7.53;4.97;;;;;;;;;;5031696;28;20529;-76
2023/10/20 08:14:05;;;;;;;6.78;4.53;;;;;;;;;;5041768;28;20193;-76
2023/10/20 08:16:30;;;;;;;7.95;4.97;;;;;;;;;;5032295;28;20226;-77
2023/10/20 08:18:56;;;;;;;9.43;4.53;;;;;;;;;;5041973;28;20182;-74
2023/10/20 08:21:26;;;;;;;8.75;4.47;;;;;;;;;;5039648;28;20208;-74
2023/10/20 08:23:51;;;;;;;7.20;5.13;;;;;;;;;;5032792;28;20191;-75
2023/10/20 08:26:19;;;;;;;6.50;4.72;;;;;;;;;;5017134;28;20185;-76
2023/10/20 08:28:45;;;;;;;7.32;4.65;;;;;;;;;;5030970;28;20209;-76
2023/10/20 08:31:17;;;;;;;7.65;4.22;;;;;;;;;;5037469;28;20192;-73
2023/10/20 08:33:45;;;;;;;6.95;4.25;;;;;;;;;;5030885;28;20189;-75
2023/10/20 08:36:12;;;;;;;8.02;4.53;;;;;;;;;;5029353;28;20237;-74
2023/10/20 08:38:39;;;;;;;6.35;4.55;;;;;;;;;;5037049;28;20207;-78
2023/10/20 08:41:13;;;;;;;9.15;4.32;;;;;;;;;;5032032;28;20190;-74
2023/10/20 08:43:40;;;;;;;5.90;4.15;;;;;;;;;;5021158;28;20570;-75
2023/10/20 08:46:08;;;;;;;5.40;3.70;;;;;;;;;;5033086;28;20178;-76
2023/10/20 08:48:36;;;;;;;5.55;4.28;;;;;;;;;;5013318;28;20244;-77
2023/10/20 08:51:03;;;;;;;4.82;3.28;;;;;;;;;;5035277;28;20193;-78
2023/10/20 08:53:33;;;;;;;7.95;3.90;;;;;;;;;;5034148;28;20190;-75
2023/10/20 08:55:59;;;;;;;4.97;3.38;;;;;;;;;;5029014;28;20198;-76
2023/10/20 08:58:27;;;;;;;4.65;3.40;;;;;;;;;;5016540;28;20194;-76
2023/10/20 09:00:54;;;;;;;4.78;3.30;;;;;;;;;;5024346;28;20198;-75
2023/10/20 09:03:19;;;;;;;5.13;3.58;;;;;;;;;;5034375;28;20202;-73
2023/10/20 09:05:45;;;;;;;5.22;3.40;;;;;;;;;;5029169;28;20196;-74
2023/10/20 09:08:12;;;;;;;4.70;3.33;;;;;;;;;;5011746;28;20194;-76
2023/10/20 09:10:42;;;;;;;5.40;3.40;;;;;;;;;;5030657;28;20213;-79
2023/10/20 09:13:09;;;;;;;4.15;3.15;;;;;;;;;;5033918;28;20196;-77
2023/10/20 09:15:34;;;;;;;4.30;3.47;;;;;;;;;;5031550;28;20244;-76
2023/10/20 09:18:00;;;;;;;4.53;3.20;;;;;;;;;;5039323;28;20194;-74
2023/10/20 09:20:26;;;;;;;7.45;3.30;;;;;;;;;;5041088;28;20609;-77
2023/10/20 09:22:52;;;;;;;5.13;3.05;;;;;;;;;;5036281;28;20205;-77
2023/10/20 09:25:18;;;;;;;3.97;2.90;;;;;;;;;;5049841;28;20213;-78
2023/10/20 09:27:44;;;;;;;4.05;3.00;;;;;;;;;;5032274;28;20217;-78
2023/10/20 09:30:10;;;;;;;3.53;2.55;;;;;;;;;;5030467;28;20210;-78
2023/10/20 09:32:36;;;;;;;5.30;2.97;;;;;;;;;;5030594;28;20300;-77
2023/10/20 09:35:03;;;;;;;4.40;2.58;;;;;;;;;;5030474;28;20218;-75
2023/10/20 09:37:30;;;;;;;5.00;2.67;;;;;;;;;;5032190;28;20328;-77
2023/10/20 09:40:08;;;;;;;3.92;2.50;;;;;;;;;;5032244;28;20190;-74
2023/10/20 09:43:09;;;;;;;3.38;2.42;;;;;;;;;;5037897;28;20197;-79
2023/10/20 09:45:41;;;;;;;5.35;2.08;;;;;;;;;;5035251;28;20184;-75
2023/10/20 09:48:20;;;;;;;4.05;2.35;;;;;;;;;;5050959;28;20268;-78
2023/10/20 09:50:47;;;;;;;2.78;2.08;;;;;;;;;;5027106;28;20194;-75
2023/10/20 09:53:16;;;;;;;2.78;2.10;;;;;;;;;;5029714;28;20637;-78
2023/10/20 09:55:47;;;;;;;2.13;1.92;;;;;;;;;;5030866;28;20639;-76
2023/10/20 09:58:22;;;;;;;2.97;1.95;;;;;;;;;;5031025;28;20208;-77
2023/10/20 10:00:50;;;;;;;2.80;1.97;;;;;;;;;;5019252;28;20231;-75
2023/10/20 10:03:26;;;;;;;4.25;2.20;;;;;;;;;;5031646;28;20685;-78
2023/10/20 10:05:51;;;;;;;2.35;1.60;;;;;;;;;;5031617;28;20236;-76
2023/10/20 10:08:20;;;;;;;2.53;1.80;;;;;;;;;;5036576;28;20662;-79
2023/10/20 10:10:45;;;;;;;1.70;1.58;;;;;;;;;;5032052;28;20249;-74
2023/10/20 10:13:11;;;;;;;5.68;1.45;;;;;;;;;;5027852;28;20186;-74
2023/10/20 10:15:43;;;;;;;12.13;1.83;;;;;;;;;;5012940;28;20559;-77
2023/10/20 10:18:11;;;;;;;6.05;1.38;;;;;;;;;;5021751;28;20190;-78
2023/10/20 10:20:46;;;;;;;3.35;1.33;;;;;;;;;;5025971;28;20201;-76
2023/10/20 10:23:12;;;;;;;1.60;1.17;;;;;;;;;;5035272;28;20216;-78
2023/10/20 10:25:47;;;;;;;1.50;1.00;;;;;;;;;;5049005;28;20194;-77
2023/10/20 10:28:13;;;;;;;4.00;0.93;;;;;;;;;;5033631;28;20508;-75
2023/10/20 10:30:40;;;;;;;2.53;1.17;;;;;;;;;;5030804;28;20261;-77
2023/10/20 10:33:11;;;;;;;2.80;0.95;;;;;;;;;;5034927;28;20190;-78
2023/10/20 10:35:40;;;;;;;2.42;0.90;;;;;;;;;;5041081;28;20201;-75
2023/10/20 10:38:28;;;;;;;1.10;1.00;;;;;;;;;;5033100;28;20186;-77
2023/10/20 10:40:55;;;;;;;1.40;0.70;;;;;;;;;;5036366;28;20698;-76
2023/10/20 10:43:21;;;;;;;1.15;0.82;;;;;;;;;;5029750;28;20198;-77
2023/10/20 10:45:53;;;;;;;1.13;0.70;;;;;;;;;;5036394;28;20183;-75
2023/10/20 10:48:24;;;;;;;1.10;0.63;;;;;;;;;;5034058;28;20194;-76
2023/10/20 10:50:51;;;;;;;0.82;0.57;;;;;;;;;;5027181;28;20209;-77
2023/10/20 10:53:16;;;;;;;1.38;0.80;;;;;;;;;;5038090;28;20221;-77
2023/10/20 10:55:43;;;;;;;0.70;0.70;;;;;;;;;;5046637;28;20256;-76
2023/10/20 10:58:14;;;;;;;1.37;0.57;;;;;;;;;;5034748;28;20527;-73
2023/10/20 11:00:43;;;;;;;2.38;0.63;;;;;;;;;;5048815;28;20190;-78
2023/10/20 11:03:09;;;;;;;3.67;0.40;;;;;;;;;;5016354;28;20186;-76
2023/10/20 11:05:35;;;;;;;0.52;0.52;;;;;;;;;;5030616;28;20246;-76
2023/10/20 11:08:05;;;;;;;0.70;0.65;;;;;;;;;;5026521;28;20190;-77
2023/10/20 11:10:34;;;;;;;0.98;0.63;;;;;;;;;;5046193;28;20233;-77
2023/10/20 11:13:07;;;;;;;0.80;0.40;;;;;;;;;;5032048;28;20189;-76
2023/10/20 11:15:33;;;;;;;1.67;0.50;;;;;;;;;;5027809;28;20345;-77
2023/10/20 11:18:04;;;;;;;2.05;0.50;;;;;;;;;;5037828;28;20262;-75
2023/10/20 11:20:38;;;;;;;0.75;0.40;;;;;;;;;;5033821;28;20271;-76
2023/10/20 11:23:07;;;;;;;0.50;0.43;;;;;;;;;;5041927;28;20562;-77
2023/10/20 11:25:34;;;;;;;1.77;0.32;;;;;;;;;;5040641;28;20244;-76
2023/10/20 11:28:02;;;;;;;0.70;0.40;;;;;;;;;;5024233;28;20181;-77
2023/10/20 11:30:31;;;;;;;1.05;0.40;;;;;;;;;;5031319;28;20217;-80
2023/10/20 11:32:58;;;;;;;0.35;0.30;;;;;;;;;;5028351;28;20516;-75
2023/10/20 11:35:24;;;;;;;0.68;0.30;;;;;;;;;;5038094;28;20256;-74
2023/10/20 11:37:54;;;;;;;1.33;0.30;;;;;;;;;;5055852;28;20272;-77
2023/10/20 11:40:20;;;;;;;0.25;0.20;;;;;;;;;;5040664;28;20200;-73
2023/10/20 11:42:46;;;;;;;0.50;0.30;;;;;;;;;;5041515;28;20204;-73
2023/10/20 11:45:12;;;;;;;0.20;0.10;;;;;;;;;;5038555;28;20178;-72
2023/10/20 11:47:38;;;;;;;0.20;0.20;;;;;;;;;;5024223;28;20221;-76
2023/10/20 11:50:05;;;;;;;0.20;0.20;;;;;;;;;;5042812;28;20185;-74
2023/10/20 11:52:31;;;;;;;0.25;0.25;;;;;;;;;;5043939;28;20385;-75
2023/10/20 11:54:56;;;;;;;0.65;0.38;;;;;;;;;;5036050;28;20210;-74
2023/10/20 11:57:22;;;;;;;0.93;0.45;;;;;;;;;;5034212;28;20611;-75
2023/10/20 11:59:48;;;;;;;0.38;0.30;;;;;;;;;;5036984;28;20224;-74
2023/10/20 12:02:13;;;;;;;1.98;0.65;;;;;;;;;;5052593;28;20194;-74
2023/10/20 12:04:39;;;;;;;0.20;0.20;;;;;;;;;;5017495;28;20563;-75
2023/10/20 12:07:04;;;;;;;0.30;0.30;;;;;;;;;;5028555;28;20234;-75
2023/10/20 12:09:30;;;;;;;0.50;0.30;;;;;;;;;;5028164;28;20656;-74
2023/10/20 12:11:56;;;;;;;0.50;0.40;;;;;;;;;;5037467;28;20186;-73
2023/10/20 12:14:22;;;;;;;2.78;0.50;;;;;;;;;;5020930;28;20262;-73
2023/10/20 12:16:47;;;;;;;0.35;0.30;;;;;;;;;;5025219;28;20281;-73
2023/10/20 12:19:12;;;;;;;0.38;0.20;;;;;;;;;;5032464;28;20668;-73
2023/10/20 12:21:38;;;;;;;0.20;0.20;;;;;;;;;;5021024;28;20216;-73
2023/10/20 12:24:04;;;;;;;0.20;0.20;;;;;;;;;;5032224;28;20307;-76
2023/10/20 12:26:30;;;;;;;1.00;0.40;;;;;;;;;;5039582;28;20226;-73
2023/10/20 12:28:58;;;;;;;0.63;0.30;;;;;;;;;;5059231;28;20232;-73
2023/10/20 12:31:24;;;;;;;0.20;0.20;;;;;;;;;;5035185;28;20220;-73
2023/10/20 12:33:50;;;;;;;0.60;0.30;;;;;;;;;;5039170;28;20584;-76
2023/10/20 12:36:16;;;;;;;0.35;0.30;;;;;;;;;;5047022;28;20221;-72
2023/10/20 12:38:43;;;;;;;0.50;0.30;;;;;;;;;;5020515;28;20276;-72
2023/10/20 12:41:13;;;;;;;0.45;0.40;;;;;;;;;;5042605;28;20658;-73
2023/10/20 12:43:40;;;;;;;0.77;0.40;;;;;;;;;;5046456;28;20190;-73
2023/10/20 12:46:06;;;;;;;0.63;0.30;;;;;;;;;;5034123;28;20199;-77
2023/10/20 12:48:31;;;;;;;0.30;0.30;;;;;;;;;;5035941;28;20213;-78
2023/10/20 12:50:57;;;;;;;1.77;0.30;;;;;;;;;;4986977;28;20190;-72
2023/10/20 12:53:23;;;;;;;0.90;0.50;;;;;;;;;;5036316;28;20618;-75
2023/10/20 12:55:51;;;;;;;0.38;0.32;;;;;;;;;;5041650;28;20281;-74
2023/10/20 12:58:17;;;;;;;0.60;0.50;;;;;;;;;;5034328;28;20277;-74
2023/10/20 13:00:42;;;;;;;0.57;0.40;;;;;;;;;;5037300;28;20182;-73
2023/10/20 13:03:08;;;;;;;0.80;0.52;;;;;;;;;;5041013;28;20189;-74
2023/10/20 13:05:33;;;;;;;2.67;0.50;;;;;;;;;;5034634;28;20182;-75
2023/10/20 13:07:59;;;;;;;0.63;0.40;;;;;;;;;;5033975;28;20657;-74
2023/10/20 13:10:25;;;;;;;0.40;0.40;;;;;;;;;;5016819;28;20194;-73
2023/10/20 13:12:52;;;;;;;0.47;0.38;;;;;;;;;;5031790;28;20187;-76
2023/10/20 13:15:19;;;;;;;0.47;0.47;;;;;;;;;;5025936;28;20233;-77
2023/10/20 13:17:48;;;;;;;0.47;0.47;;;;;;;;;;5044142;28;20699;-75
2023/10/20 13:20:14;;;;;;;0.57;0.50;;;;;;;;;;5041667;28;20511;-74
2023/10/20 13:22:40;;;;;;;0.98;0.70;;;;;;;;;;5045670;28;20190;-76
2023/10/20 13:25:09;;;;;;;0.65;0.60;;;;;;;;;;5046748;28;20186;-76
2023/10/20 13:27:36;;;;;;;0.55;0.55;;;;;;;;;;5059765;28;20190;-77
2023/10/20 13:30:04;;;;;;;0.50;0.50;;;;;;;;;;5009457;28;20228;-78
2023/10/20 13:32:30;;;;;;;0.95;0.60;;;;;;;;;;5043275;28;20295;-73
2023/10/20 13:34:57;;;;;;;0.60;0.60;;;;;;;;;;5042526;28;20209;-76
2023/10/20 13:37:28;;;;;;;0.47;0.47;;;;;;;;;;5022705;28;20420;-76
2023/10/20 13:39:54;;;;;;;0.50;0.50;;;;;;;;;;5036186;28;20563;-75
2023/10/20 13:42:21;;;;;;;0.50;0.40;;;;;;;;;;5047773;28;20178;-75
2023/10/20 13:44:47;;;;;;;0.75;0.52;;;;;;;;;;5041321;28;20262;-77
2023/10/20 13:47:14;;;;;;;0.40;0.40;;;;;;;;;;5038726;28;20183;-74
2023/10/20 13:49:40;;;;;;;0.68;0.40;;;;;;;;;;5042157;28;20202;-75
2023/10/20 13:52:05;;;;;;;0.60;0.60;;;;;;;;;;5019941;28;20400;-74
2023/10/20 13:54:32;;;;;;;0.60;0.50;;;;;;;;;;5041756;28;20218;-72
2023/10/20 13:56:59;;;;;;;0.77;0.60;;;;;;;;;;5044543;28;20244;-72
2023/10/20 13:59:25;;;;;;;0.60;0.50;;;;;;;;;;5035954;28;20182;-74
2023/10/20 14:01:51;;;;;;;0.65;0.60;;;;;;;;;;5032522;28;20214;-73
2023/10/20 14:04:18;;;;;;;0.65;0.60;;;;;;;;;;5034788;28;20185;-77
2023/10/20 14:06:44;;;;;;;0.43;0.40;;;;;;;;;;5010237;28;20211;-77
2023/10/20 14:09:09;;;;;;;1.48;0.55;;;;;;;;;;5032268;28;20268;-74
2023/10/20 14:11:36;;;;;;;0.73;0.50;;;;;;;;;;5038276;28;20222;-75
2023/10/20 14:14:05;;;;;;;1.13;0.60;;;;;;;;;;5039747;28;20182;-75
2023/10/20 14:16:31;;;;;;;0.77;0.60;;;;;;;;;;5018991;28;20234;-75
2023/10/20 14:18:56;;;;;;;0.55;0.50;;;;;;;;;;5022402;28;20179;-76
2023/10/20 14:21:23;;;;;;;1.10;0.70;;;;;;;;;;5037315;28;20174;-78
2023/10/20 14:23:49;;;;;;;3.58;0.73;;;;;;;;;;5041841;28;20209;-74
2023/10/20 14:26:14;;;;;;;0.73;0.73;;;;;;;;;;5035129;28;20198;-76
2023/10/20 14:28:42;;;;;;;0.90;0.50;;;;;;;;;;5043752;28;20232;-77
2023/10/20 14:31:07;;;;;;;1.13;0.60;;;;;;;;;;5019073;28;20201;-75
2023/10/20 14:33:36;;;;;;;0.55;0.50;;;;;;;;;;5045302;28;20215;-75
2023/10/20 14:36:03;;;;;;;0.50;0.50;;;;;;;;;;5049842;28;20218;-74
2023/10/20 14:38:30;;;;;;;1.13;0.80;;;;;;;;;;5016943;28;20202;-75
2023/10/20 14:41:03;;;;;;;0.70;0.70;;;;;;;;;;5021960;28;20184;-78
2023/10/20 14:43:32;;;;;;;0.90;0.90;;;;;;;;;;5018656;28;20174;-75
2023/10/20 14:46:02;;;;;;;0.80;0.63;;;;;;;;;;5040133;28;20652;-75
2023/10/20 14:48:29;;;;;;;0.90;0.70;;;;;;;;;;5043255;28;20217;-76
2023/10/20 14:50:56;;;;;;;1.08;0.50;;;;;;;;;;5032962;28;20198;-76
2023/10/20 14:53:22;;;;;;;0.50;0.50;;;;;;;;;;5020921;28;20182;-76
2023/10/20 14:55:48;;;;;;;0.40;0.40;;;;;;;;;;5037545;28;20202;-75
2023/10/20 14:58:15;;;;;;;0.60;0.60;;;;;;;;;;5037864;28;20253;-76
2023/10/20 15:00:48;;;;;;;1.02;0.80;;;;;;;;;;5041497;28;20617;-74
2023/10/20 15:03:14;;;;;;;0.82;0.60;;;;;;;;;;5040257;28;20189;-75
2023/10/20 15:05:41;;;;;;;0.70;0.50;;;;;;;;;;5043614;28;20548;-77